KBML/BML METAR and TAF weather

Enter ICAO airport designator
Station Type Date Time Source
KBML METAR 2020/01/19 17:07 UTC NOAA

KBML 191707Z AUTO VRB04KT 10SM BKN026 OVC031 M02/M06 A2952 RMK AO2 T10171061 $


Station Type Date Time Source
KBML Decoded METAR 2020/01/19 17:07 UTC NOAA

BERLIN MUNICIPAL AIRPORT, NH, United States (KBML) 44-35N 71-11W 345M
Jan 19, 2020 - 12:07 PM EST / 2020.01.19 1707 UTC
Wind: Variable at 5 MPH (4 KT):0
Visibility: 10 mile(s):0
Sky conditions: overcast
Temperature: 28.9 F (-1.7 C)
Windchill: 23 F (-5 C):1
Dew Point: 21.0 F (-6.1 C)
Relative Humidity: 71%
Pressure (altimeter): 29.52 in. Hg (999 hPa)
ob: KBML 191707Z AUTO VRB04KT 10SM BKN026 OVC031 M02/M06 A2952 RMK AO2 T10171061
cycle: 17

Station Type Date Time Source
KBML TAF UTC NOAA

Error!

Example: see airport list